Time;durP1;ratioP1;P1;durP2;ratioP2;P2;SDS_P1;SDS_P2;PMS_P1;PMS_P2;Temp;Humidity;BMP_temperature;BMP_pressure;BME280_temperature;BME280_humidity;BME280_pressure;Samples;Min_cycle;Max_cycle;Signal;HPM_P1;HPM_P2
2022/10/16 00:01:04;;;;;;;;;;;12.60;99.90;;;;;;5057850;28;20390;-76
2022/10/16 00:03:29;;;;;;;;;;;12.60;99.90;;;;;;5074573;28;19924;-76
2022/10/16 00:05:58;;;;;;;;;;;12.60;99.90;;;;;;5074315;28;20417;-76
2022/10/16 00:08:23;;;;;;;;;;;12.60;99.90;;;;;;5074564;28;20284;-75
2022/10/16 00:10:49;;;;;;;;;;;12.60;99.90;;;;;;5108389;28;19928;-76
2022/10/16 00:13:16;;;;;;;;;;;12.60;99.90;;;;;;5107617;28;19924;-76
2022/10/16 00:15:43;;;;;;;;;;;12.60;99.90;;;;;;5074782;28;20276;-76
2022/10/16 00:18:09;;;;;;;;;;;12.60;99.90;;;;;;5090981;28;20023;-76
2022/10/16 00:20:36;;;;;;;;;;;12.60;99.90;;;;;;5094500;28;19924;-76
2022/10/16 00:23:03;;;;;;;;;;;12.60;99.90;;;;;;5078437;28;19973;-76
2022/10/16 00:25:28;;;;;;;;;;;12.60;99.90;;;;;;5078247;28;19928;-76
2022/10/16 00:27:54;;;;;;;;;;;12.70;99.90;;;;;;5112178;28;19930;-76
2022/10/16 00:30:20;;;;;;;;;;;12.60;99.90;;;;;;5112006;28;19924;-75
2022/10/16 00:32:45;;;;;;;;;;;12.60;99.90;;;;;;5078435;28;19978;-76
2022/10/16 00:35:11;;;;;;;;;;;12.60;99.90;;;;;;5111537;28;19924;-76
2022/10/16 00:37:37;;;;;;;;;;;12.70;99.90;;;;;;5095348;28;20337;-76
2022/10/16 00:40:02;;;;;;;;;;;12.70;99.90;;;;;;5112105;28;20409;-76
2022/10/16 00:42:28;;;;;;;;;;;12.70;99.90;;;;;;5094308;28;19939;-76
2022/10/16 00:44:58;;;;;;;;;;;12.70;99.90;;;;;;5077767;28;19924;-75
2022/10/16 00:47:51;;;;;;;;;;;12.70;99.90;;;;;;5094930;28;19981;-76
2022/10/16 00:50:33;;;;;;;;;;;12.60;99.90;;;;;;5074636;28;20022;-76
2022/10/16 00:53:00;;;;;;;;;;;12.60;99.90;;;;;;5061217;28;19932;-76
2022/10/16 00:55:27;;;;;;;;;;;12.60;99.90;;;;;;5077947;28;20268;-75
2022/10/16 00:57:53;;;;;;;;;;;12.60;99.90;;;;;;5077668;28;19928;-76
2022/10/16 01:00:20;;;;;;;;;;;12.50;99.90;;;;;;5094444;28;19932;-76
2022/10/16 01:02:56;;;;;;;;;;;12.50;99.90;;;;;;5060740;28;19924;-76
2022/10/16 01:05:44;;;;;;;;;;;12.50;99.90;;;;;;5094139;28;19924;-76
2022/10/16 01:08:17;;;;;;;;;;;12.50;99.90;;;;;;5077616;28;20257;-76
2022/10/16 01:10:47;;;;;;;;;;;12.50;99.90;;;;;;5111574;28;19928;-76
2022/10/16 01:13:17;;;;;;;;;;;12.50;99.90;;;;;;5094199;28;19932;-76
2022/10/16 01:15:59;;;;;;;;;;;12.60;99.90;;;;;;5077851;28;20016;-76
2022/10/16 01:18:24;;;;;;;;;;;12.60;99.90;;;;;;5076986;28;19924;-76
2022/10/16 01:20:54;;;;;;;;;;;12.60;99.90;;;;;;5111319;28;19931;-76
2022/10/16 01:23:38;;;;;;;;;;;12.60;99.90;;;;;;5076996;28;20356;-76
2022/10/16 01:26:13;;;;;;;;;;;12.60;99.90;;;;;;5076709;28;20062;-76
2022/10/16 01:28:41;;;;;;;;;;;12.70;99.90;;;;;;5111426;28;20369;-77
2022/10/16 01:31:10;;;;;;;;;;;12.80;99.90;;;;;;5077060;28;20011;-76
2022/10/16 01:33:43;;;;;;;;;;;12.80;99.90;;;;;;5076826;28;19985;-76
2022/10/16 01:36:12;;;;;;;;;;;12.80;99.90;;;;;;5094206;28;20020;-76
2022/10/16 01:38:39;;;;;;;;;;;12.90;99.90;;;;;;5060644;28;19934;-76
2022/10/16 01:41:08;;;;;;;;;;;12.80;99.90;;;;;;5076337;28;20367;-76
2022/10/16 01:43:37;;;;;;;;;;;12.90;99.90;;;;;;5076653;28;19932;-76
2022/10/16 01:46:04;;;;;;;;;;;13.00;99.90;;;;;;5094082;28;19944;-77
2022/10/16 01:48:31;;;;;;;;;;;13.00;99.90;;;;;;5076368;28;19924;-76
2022/10/16 01:51:03;;;;;;;;;;;13.00;99.90;;;;;;5076848;28;19930;-76
2022/10/16 01:53:29;;;;;;;;;;;13.00;99.90;;;;;;5076766;28;20399;-76
2022/10/16 01:55:55;;;;;;;;;;;13.00;99.90;;;;;;5076585;28;19959;-76
2022/10/16 01:58:22;;;;;;;;;;;13.10;99.90;;;;;;5093420;28;20402;-76
2022/10/16 02:00:48;;;;;;;;;;;13.10;99.90;;;;;;5076893;28;19979;-76
2022/10/16 02:03:15;;;;;;;;;;;13.10;99.90;;;;;;5092535;28;19982;-77
2022/10/16 02:05:44;;;;;;;;;;;13.20;99.90;;;;;;5076805;28;19931;-76
2022/10/16 02:08:10;;;;;;;;;;;13.20;99.90;;;;;;5076767;28;19924;-76
2022/10/16 02:10:36;;;;;;;;;;;13.20;99.90;;;;;;5109945;28;20019;-76
2022/10/16 02:13:22;;;;;;;;;;;13.20;99.90;;;;;;5093121;28;19924;-76
2022/10/16 02:15:47;;;;;;;;;;;13.10;99.90;;;;;;5076162;28;19968;-76
2022/10/16 02:18:13;;;;;;;;;;;13.00;99.90;;;;;;5092882;28;19935;-76
2022/10/16 02:20:52;;;;;;;;;;;13.00;99.90;;;;;;5093431;28;19932;-77
2022/10/16 02:23:29;;;;;;;;;;;13.00;99.90;;;;;;5092580;28;20015;-77
2022/10/16 02:25:57;;;;;;;;;;;13.00;99.90;;;;;;5072345;28;19925;-76
2022/10/16 02:28:26;;;;;;;;;;;12.90;99.90;;;;;;5106560;28;19924;-76
2022/10/16 02:30:56;;;;;;;;;;;12.90;99.90;;;;;;5089780;28;19924;-76
2022/10/16 02:33:22;;;;;;;;;;;12.80;99.90;;;;;;5105766;28;19925;-76
2022/10/16 02:35:48;;;;;;;;;;;12.80;99.90;;;;;;5106852;28;20566;-76
2022/10/16 02:38:15;;;;;;;;;;;12.70;99.90;;;;;;5072501;28;19924;-77
2022/10/16 02:40:41;;;;;;;;;;;12.70;99.90;;;;;;5105845;28;20011;-76
2022/10/16 02:43:06;;;;;;;;;;;12.60;99.90;;;;;;5054961;28;20016;-76
2022/10/16 02:45:32;;;;;;;;;;;12.60;99.90;;;;;;5106380;28;19931;-76
2022/10/16 02:47:58;;;;;;;;;;;12.60;99.90;;;;;;5105956;28;20052;-76
2022/10/16 02:50:24;;;;;;;;;;;12.60;99.90;;;;;;5106140;28;19928;-76
2022/10/16 02:52:50;;;;;;;;;;;12.60;99.90;;;;;;5072349;28;19976;-77
2022/10/16 02:55:16;;;;;;;;;;;12.60;99.90;;;;;;5105997;28;19967;-76
2022/10/16 02:57:41;;;;;;;;;;;12.60;99.90;;;;;;5072314;28;19925;-76
2022/10/16 03:00:08;;;;;;;;;;;12.60;99.90;;;;;;5106188;28;19924;-76
2022/10/16 03:02:34;;;;;;;;;;;12.60;99.90;;;;;;5105205;28;20047;-77
2022/10/16 03:05:00;;;;;;;;;;;12.60;99.90;;;;;;5105736;28;19975;-76
2022/10/16 03:07:25;;;;;;;;;;;12.60;99.90;;;;;;5105889;28;19924;-77
2022/10/16 03:09:51;;;;;;;;;;;12.60;99.90;;;;;;5055111;28;19931;-77
2022/10/16 03:12:16;;;;;;;;;;;12.60;99.90;;;;;;5055306;28;19932;-77
2022/10/16 03:14:42;;;;;;;;;;;12.60;99.90;;;;;;5105641;28;20019;-77
2022/10/16 03:17:08;;;;;;;;;;;12.60;99.90;;;;;;5105576;28;19928;-77
2022/10/16 03:19:33;;;;;;;;;;;12.50;99.90;;;;;;5088573;28;20069;-77
2022/10/16 03:21:59;;;;;;;;;;;12.50;99.90;;;;;;5105758;28;19963;-77
2022/10/16 03:24:24;;;;;;;;;;;12.40;99.90;;;;;;5087526;28;20431;-76
2022/10/16 03:26:50;;;;;;;;;;;12.40;99.90;;;;;;5105356;28;20258;-76
2022/10/16 03:29:15;;;;;;;;;;;12.40;99.90;;;;;;5055042;28;19948;-77
2022/10/16 03:31:41;;;;;;;;;;;12.30;99.90;;;;;;5104931;28;19983;-76
2022/10/16 03:34:07;;;;;;;;;;;12.30;99.90;;;;;;5088238;28;20285;-76
2022/10/16 03:36:32;;;;;;;;;;;12.30;99.90;;;;;;5105403;28;19974;-76
2022/10/16 03:38:58;;;;;;;;;;;12.30;99.90;;;;;;5088146;28;19929;-76
2022/10/16 03:41:23;;;;;;;;;;;12.20;99.90;;;;;;5105187;28;19924;-76
2022/10/16 03:43:49;;;;;;;;;;;12.20;99.90;;;;;;5070838;28;20323;-76
2022/10/16 03:46:14;;;;;;;;;;;12.10;99.90;;;;;;5105179;28;19928;-77
2022/10/16 03:48:40;;;;;;;;;;;12.10;99.90;;;;;;5054642;28;19931;-77
2022/10/16 03:51:05;;;;;;;;;;;12.10;99.90;;;;;;5105331;28;19924;-77
2022/10/16 03:53:31;;;;;;;;;;;12.10;99.90;;;;;;5086807;28;19967;-76
2022/10/16 03:55:57;;;;;;;;;;;12.10;99.90;;;;;;5104981;28;20040;-77
2022/10/16 03:58:22;;;;;;;;;;;12.10;99.90;;;;;;5088290;28;19932;-76
2022/10/16 04:00:48;;;;;;;;;;;12.20;99.90;;;;;;5105063;28;19929;-76
2022/10/16 04:03:13;;;;;;;;;;;12.20;99.90;;;;;;5087310;28;19928;-77
2022/10/16 04:05:39;;;;;;;;;;;12.20;99.90;;;;;;5072175;28;19925;-77
2022/10/16 04:08:05;;;;;;;;;;;12.20;99.90;;;;;;5087874;28;19924;-76
2022/10/16 04:10:31;;;;;;;;;;;12.20;99.90;;;;;;5087561;28;19925;-76
2022/10/16 04:12:56;;;;;;;;;;;12.30;99.90;;;;;;5104659;28;19924;-77
2022/10/16 04:15:22;;;;;;;;;;;12.30;99.90;;;;;;5088032;28;19925;-77
2022/10/16 04:17:48;;;;;;;;;;;12.30;99.90;;;;;;5104361;28;19928;-77
2022/10/16 04:20:14;;;;;;;;;;;12.30;99.90;;;;;;5105235;28;20019;-78
2022/10/16 04:22:39;;;;;;;;;;;12.30;99.90;;;;;;5054292;28;19924;-77
2022/10/16 04:25:05;;;;;;;;;;;12.40;99.90;;;;;;5104809;28;19968;-76
2022/10/16 04:27:31;;;;;;;;;;;12.40;99.90;;;;;;5091216;28;19924;-76
2022/10/16 04:30:00;;;;;;;;;;;12.40;99.90;;;;;;5108442;28;19932;-76
2022/10/16 04:32:26;;;;;;;;;;;12.40;99.90;;;;;;5074132;28;19973;-76
2022/10/16 04:34:52;;;;;;;;;;;12.40;99.90;;;;;;5074062;28;19924;-76
2022/10/16 04:37:17;;;;;;;;;;;12.50;99.90;;;;;;5074562;28;19924;-76
2022/10/16 04:39:43;;;;;;;;;;;12.50;99.90;;;;;;5107175;28;19984;-76
2022/10/16 04:42:09;;;;;;;;;;;12.60;99.90;;;;;;5091340;28;19937;-76
2022/10/16 04:44:34;;;;;;;;;;;12.70;99.90;;;;;;5073563;28;20022;-77
2022/10/16 04:47:00;;;;;;;;;;;12.70;99.90;;;;;;5107796;28;19927;-76
2022/10/16 04:49:25;;;;;;;;;;;12.70;99.90;;;;;;5108263;28;19924;-76
2022/10/16 04:51:51;;;;;;;;;;;12.70;99.90;;;;;;5092014;28;19924;-76
2022/10/16 04:54:17;;;;;;;;;;;12.60;99.90;;;;;;5073540;28;19924;-76
2022/10/16 04:56:46;;;;;;;;;;;12.50;99.90;;;;;;5073725;28;20379;-77
2022/10/16 04:59:13;;;;;;;;;;;12.50;99.90;;;;;;5090900;28;19932;-76
2022/10/16 05:01:39;;;;;;;;;;;12.50;99.90;;;;;;5056910;28;19951;-77
2022/10/16 05:04:05;;;;;;;;;;;12.50;99.90;;;;;;5107403;28;19928;-76
2022/10/16 05:06:30;;;;;;;;;;;12.40;99.90;;;;;;5110986;28;19924;-77
2022/10/16 05:08:56;;;;;;;;;;;12.40;99.90;;;;;;5094287;28;19924;-76
2022/10/16 05:11:21;;;;;;;;;;;12.40;99.90;;;;;;5077875;28;19924;-76
2022/10/16 05:13:47;;;;;;;;;;;12.40;99.90;;;;;;5077339;28;20022;-76
2022/10/16 05:16:12;;;;;;;;;;;12.40;99.90;;;;;;5093929;28;19935;-76
2022/10/16 05:18:38;;;;;;;;;;;12.40;99.90;;;;;;5111296;28;19935;-76
2022/10/16 05:21:04;;;;;;;;;;;12.40;99.90;;;;;;5094303;28;19963;-76
2022/10/16 05:23:29;;;;;;;;;;;12.40;99.90;;;;;;5093740;28;19928;-76
2022/10/16 05:25:57;;;;;;;;;;;12.30;99.90;;;;;;5076793;28;19924;-76
2022/10/16 05:28:23;;;;;;;;;;;12.30;99.90;;;;;;5111399;28;19967;-76
2022/10/16 05:30:49;;;;;;;;;;;12.30;99.90;;;;;;5076407;28;20407;-76
2022/10/16 05:33:15;;;;;;;;;;;12.30;99.90;;;;;;5094181;28;19931;-76
2022/10/16 05:35:40;;;;;;;;;;;12.20;99.90;;;;;;5093849;28;20326;-76
2022/10/16 05:38:06;;;;;;;;;;;12.20;99.90;;;;;;5059803;28;19924;-76
2022/10/16 05:40:31;;;;;;;;;;;12.20;99.90;;;;;;5077145;28;19932;-76
2022/10/16 05:42:57;;;;;;;;;;;12.20;99.90;;;;;;5110550;28;19974;-76
2022/10/16 05:45:22;;;;;;;;;;;12.20;99.90;;;;;;5110529;28;19935;-76
2022/10/16 05:47:48;;;;;;;;;;;12.20;99.90;;;;;;5093690;28;20531;-76
2022/10/16 05:50:14;;;;;;;;;;;12.10;99.90;;;;;;5077060;28;19924;-76
2022/10/16 05:52:39;;;;;;;;;;;12.10;99.90;;;;;;5093205;28;19924;-76
2022/10/16 05:55:05;;;;;;;;;;;12.10;99.90;;;;;;5110600;28;19928;-76
2022/10/16 05:57:31;;;;;;;;;;;12.10;99.90;;;;;;5093918;28;20429;-76
2022/10/16 05:59:56;;;;;;;;;;;12.10;99.90;;;;;;5076210;28;19931;-76
2022/10/16 06:02:22;;;;;;;;;;;12.10;99.90;;;;;;5076556;28;19977;-76
2022/10/16 06:04:47;;;;;;;;;;;12.10;99.90;;;;;;5076136;28;19928;-76
2022/10/16 06:07:13;;;;;;;;;;;12.00;99.90;;;;;;5110103;28;19978;-76
2022/10/16 06:09:39;;;;;;;;;;;12.00;99.90;;;;;;5109927;28;19928;-76
2022/10/16 06:12:04;;;;;;;;;;;12.00;99.90;;;;;;5110643;28;19924;-76
2022/10/16 06:14:30;;;;;;;;;;;12.00;99.90;;;;;;5092938;28;20002;-76
2022/10/16 06:16:55;;;;;;;;;;;12.00;99.90;;;;;;5075198;28;19931;-77
2022/10/16 06:19:21;;;;;;;;;;;12.00;99.90;;;;;;5093847;28;19924;-76
2022/10/16 06:21:46;;;;;;;;;;;12.00;99.90;;;;;;5093668;28;19924;-76
2022/10/16 06:24:12;;;;;;;;;;;12.00;99.90;;;;;;5092877;28;20299;-76
2022/10/16 06:26:38;;;;;;;;;;;12.00;99.90;;;;;;5058927;28;19928;-77
2022/10/16 06:29:04;;;;;;;;;;;12.00;99.90;;;;;;5109836;28;19928;-78
2022/10/16 06:31:31;;;;;;;;;;;12.10;99.90;;;;;;5059705;28;19924;-76
2022/10/16 06:33:57;;;;;;;;;;;12.10;99.90;;;;;;5092442;28;20381;-76
2022/10/16 06:36:23;;;;;;;;;;;12.10;99.90;;;;;;5075510;28;20022;-76
2022/10/16 06:38:49;;;;;;;;;;;12.10;99.90;;;;;;5075447;28;19936;-77
2022/10/16 06:41:16;;;;;;;;;;;12.00;99.90;;;;;;5076259;28;19924;-76
2022/10/16 06:43:41;;;;;;;;;;;12.10;99.90;;;;;;5075479;28;20256;-77
2022/10/16 06:46:09;;;;;;;;;;;12.10;99.90;;;;;;5074995;28;19981;-76
2022/10/16 06:48:35;;;;;;;;;;;12.10;99.90;;;;;;5076074;28;20338;-76
2022/10/16 06:51:00;;;;;;;;;;;12.00;99.90;;;;;;5092603;28;19975;-76
2022/10/16 06:53:27;;;;;;;;;;;12.10;99.90;;;;;;5092180;28;20276;-76
2022/10/16 06:55:52;;;;;;;;;;;12.10;99.90;;;;;;5075382;28;19928;-77
2022/10/16 06:58:18;;;;;;;;;;;12.10;99.90;;;;;;5075708;28;19935;-76
2022/10/16 07:00:43;;;;;;;;;;;12.10;99.90;;;;;;5075043;28;19928;-77
2022/10/16 07:03:09;;;;;;;;;;;12.10;99.90;;;;;;5109030;28;19932;-76
2022/10/16 07:05:38;;;;;;;;;;;12.20;99.90;;;;;;5075749;28;19971;-76
2022/10/16 07:08:05;;;;;;;;;;;12.20;99.90;;;;;;5074622;28;19950;-76
2022/10/16 07:10:31;;;;;;;;;;;12.30;99.90;;;;;;5092547;28;19925;-76
2022/10/16 07:12:56;;;;;;;;;;;12.30;99.90;;;;;;5075105;28;20543;-76
2022/10/16 07:15:22;;;;;;;;;;;12.40;99.90;;;;;;5108978;28;19963;-76
2022/10/16 07:17:48;;;;;;;;;;;12.40;99.90;;;;;;5075030;28;20390;-76
2022/10/16 07:20:13;;;;;;;;;;;12.50;99.90;;;;;;5075349;28;19924;-76
2022/10/16 07:22:39;;;;;;;;;;;12.50;99.90;;;;;;5108720;28;19935;-76
2022/10/16 07:25:05;;;;;;;;;;;12.60;99.90;;;;;;5091146;28;19927;-76
2022/10/16 07:27:30;;;;;;;;;;;12.60;99.90;;;;;;5091594;28;19924;-76
2022/10/16 07:29:56;;;;;;;;;;;12.60;99.90;;;;;;5074573;28;20019;-76
2022/10/16 07:32:21;;;;;;;;;;;12.60;99.90;;;;;;5075108;28;20257;-76
2022/10/16 07:34:47;;;;;;;;;;;12.70;99.90;;;;;;5091558;28;19924;-76
2022/10/16 07:37:13;;;;;;;;;;;12.70;99.90;;;;;;5108391;28;19928;-76
2022/10/16 07:39:38;;;;;;;;;;;12.80;99.90;;;;;;5058407;28;20426;-76
2022/10/16 07:42:04;;;;;;;;;;;12.80;99.90;;;;;;5108719;28;19924;-76
2022/10/16 07:44:32;;;;;;;;;;;12.90;99.90;;;;;;5072317;28;19931;-77
2022/10/16 07:46:57;;;;;;;;;;;13.00;99.90;;;;;;5074067;28;19928;-76
2022/10/16 07:49:23;;;;;;;;;;;13.00;99.90;;;;;;5091934;28;19928;-76
2022/10/16 07:51:48;;;;;;;;;;;13.10;99.90;;;;;;5091530;28;20386;-77
2022/10/16 07:54:14;;;;;;;;;;;13.10;99.90;;;;;;5074186;28;20018;-76
2022/10/16 07:56:39;;;;;;;;;;;13.20;99.90;;;;;;5074934;28;19928;-76
2022/10/16 07:59:05;;;;;;;;;;;13.30;99.90;;;;;;5108265;28;19931;-76
2022/10/16 08:01:31;;;;;;;;;;;13.40;99.90;;;;;;5107975;28;19924;-76
2022/10/16 08:03:56;;;;;;;;;;;13.50;99.90;;;;;;5074043;28;20015;-76
2022/10/16 08:06:22;;;;;;;;;;;13.50;99.90;;;;;;5091652;28;20030;-76
2022/10/16 08:08:47;;;;;;;;;;;13.50;99.90;;;;;;5074074;28;19931;-76
2022/10/16 08:11:14;;;;;;;;;;;13.60;99.90;;;;;;5108334;28;19935;-76
2022/10/16 08:13:40;;;;;;;;;;;13.60;99.90;;;;;;5074596;28;20001;-76
2022/10/16 08:16:07;;;;;;;;;;;13.70;99.90;;;;;;5090813;28;19924;-76
2022/10/16 08:18:37;;;;;;;;;;;13.80;99.90;;;;;;5074338;28;20391;-76
2022/10/16 08:21:03;;;;;;;;;;;13.90;99.90;;;;;;5057733;28;19928;-76
2022/10/16 08:23:28;;;;;;;;;;;13.80;99.90;;;;;;5090713;28;19971;-76
2022/10/16 08:25:55;;;;;;;;;;;13.90;99.90;;;;;;5073986;28;19994;-76
2022/10/16 08:28:21;;;;;;;;;;;13.90;99.90;;;;;;5074379;28;19936;-76
2022/10/16 08:30:46;;;;;;;;;;;13.90;99.90;;;;;;5074140;28;20522;-76
2022/10/16 08:33:12;;;;;;;;;;;13.80;99.90;;;;;;5090654;28;20165;-76
2022/10/16 08:35:37;;;;;;;;;;;13.70;99.90;;;;;;5108416;28;19935;-76
2022/10/16 08:38:04;;;;;;;;;;;13.70;99.90;;;;;;5107359;28;19932;-76
2022/10/16 08:40:32;;;;;;;;;;;13.60;99.90;;;;;;5076143;28;19928;-76
2022/10/16 08:43:09;;;;;;;;;;;13.60;99.90;;;;;;5077909;28;19932;-76
2022/10/16 08:45:44;;;;;;;;;;;13.70;99.90;;;;;;5111915;28;19932;-77
2022/10/16 08:48:13;;;;;;;;;;;13.80;99.90;;;;;;5111707;28;19947;-76
2022/10/16 08:50:39;;;;;;;;;;;14.00;99.90;;;;;;5112188;28;20026;-76
2022/10/16 08:53:06;;;;;;;;;;;14.10;99.90;;;;;;5060676;28;20016;-76
2022/10/16 08:55:41;;;;;;;;;;;14.20;99.90;;;;;;5095191;28;19924;-76
2022/10/16 08:58:13;;;;;;;;;;;14.40;99.90;;;;;;5077621;28;20016;-76
2022/10/16 09:00:39;;;;;;;;;;;14.60;99.90;;;;;;5111496;28;19928;-76
2022/10/16 09:03:23;;;;;;;;;;;14.80;99.90;;;;;;5095399;28;19924;-76
2022/10/16 09:05:48;;;;;;;;;;;15.00;99.90;;;;;;5111901;28;19928;-76
2022/10/16 09:08:26;;;;;;;;;;;15.20;99.90;;;;;;5110841;28;19992;-76
2022/10/16 09:10:55;;;;;;;;;;;15.30;99.90;;;;;;5111829;28;19932;-76
2022/10/16 09:13:27;;;;;;;;;;;15.40;99.90;;;;;;5110990;28;19980;-77
2022/10/16 09:16:01;;;;;;;;;;;15.50;99.90;;;;;;5077820;28;19924;-76
2022/10/16 09:18:32;;;;;;;;;;;15.50;99.90;;;;;;5110989;28;19985;-76
2022/10/16 09:20:58;;;;;;;;;;;15.60;99.90;;;;;;5077128;28;19928;-78
2022/10/16 09:23:34;;;;;;;;;;;15.50;99.90;;;;;;5111229;28;19924;-76
2022/10/16 09:26:01;;;;;;;;;;;15.60;99.90;;;;;;5077059;28;20398;-77
2022/10/16 09:28:27;;;;;;;;;;;15.70;99.90;;;;;;5093794;28;19924;-76
2022/10/16 09:30:53;;;;;;;;;;;15.80;99.90;;;;;;5111447;28;19928;-76
2022/10/16 09:33:20;;;;;;;;;;;16.00;99.90;;;;;;5076729;28;19935;-76
2022/10/16 09:35:47;;;;;;;;;;;16.10;99.90;;;;;;5076975;28;19931;-76
2022/10/16 09:38:24;;;;;;;;;;;16.10;99.90;;;;;;5093965;28;19927;-77
2022/10/16 09:40:49;;;;;;;;;;;16.00;99.90;;;;;;5077265;28;20010;-76
2022/10/16 09:43:15;;;;;;;;;;;15.90;99.90;;;;;;5076285;28;20023;-76
2022/10/16 09:45:41;;;;;;;;;;;15.80;99.90;;;;;;5094091;28;19924;-76
2022/10/16 09:48:18;;;;;;;;;;;15.70;99.90;;;;;;5093741;28;20646;-76
2022/10/16 09:50:54;;;;;;;;;;;15.60;99.90;;;;;;5093397;28;19985;-75
2022/10/16 09:53:22;;;;;;;;;;;15.50;99.90;;;;;;5059958;28;19964;-76
2022/10/16 09:55:49;;;;;;;;;;;15.50;99.90;;;;;;5077090;28;20046;-76
2022/10/16 09:58:14;;;;;;;;;;;15.50;99.90;;;;;;5093217;28;20261;-76
2022/10/16 10:00:41;;;;;;;;;;;15.50;99.90;;;;;;5060168;28;19924;-76
2022/10/16 10:03:10;;;;;;;;;;;15.50;99.90;;;;;;5076466;28;20032;-76
2022/10/16 10:05:38;;;;;;;;;;;15.50;99.90;;;;;;5093047;28;20014;-76
2022/10/16 10:08:08;;;;;;;;;;;15.60;99.90;;;;;;5076553;28;19932;-76
2022/10/16 10:10:36;;;;;;;;;;;15.70;99.90;;;;;;5076645;28;19928;-76
2022/10/16 10:13:02;;;;;;;;;;;15.70;99.90;;;;;;5075867;28;19939;-77
2022/10/16 10:15:32;;;;;;;;;;;15.80;99.90;;;;;;5093608;28;19928;-76
2022/10/16 10:17:58;;;;;;;;;;;15.80;99.90;;;;;;5076741;28;20018;-76
2022/10/16 10:20:28;;;;;;;;;;;15.80;99.90;;;;;;5075630;28;20015;-76
2022/10/16 10:22:55;;;;;;;;;;;15.90;99.90;;;;;;5093274;28;19924;-76
2022/10/16 10:25:40;;;;;;;;;;;15.90;99.90;;;;;;5075728;28;19924;-76
2022/10/16 10:28:38;;;;;;;;;;;15.90;99.90;;;;;;5109592;28;19924;-76
2022/10/16 10:31:03;;;;;;;;;;;16.00;99.90;;;;;;5026084;28;20023;-77
2022/10/16 10:33:40;;;;;;;;;;;16.00;99.90;;;;;;5109688;28;19983;-76
2022/10/16 10:36:25;;;;;;;;;;;16.00;99.90;;;;;;5075601;28;19930;-76
2022/10/16 10:38:52;;;;;;;;;;;16.00;99.90;;;;;;5076196;28;20279;-76
2022/10/16 10:41:21;;;;;;;;;;;16.10;99.90;;;;;;5092579;28;19927;-79
2022/10/16 10:44:05;;;;;;;;;;;16.10;99.90;;;;;;5107108;28;20087;-77
2022/10/16 10:46:57;;;;;;;;;;;16.20;99.90;;;;;;5081062;28;19924;-77
2022/10/16 10:49:22;;;;;;;;;;;16.30;99.90;;;;;;5044612;28;19931;-77
2022/10/16 10:51:54;;;;;;;;;;;16.40;99.90;;;;;;5088117;28;19929;-77
2022/10/16 10:54:25;;;;;;;;;;;16.40;99.90;;;;;;5073103;28;19972;-76
2022/10/16 10:56:56;;;;;;;;;;;16.50;99.90;;;;;;5083440;28;19929;-77
2022/10/16 10:59:22;;;;;;;;;;;16.50;99.90;;;;;;5099260;28;20283;-76
2022/10/16 11:01:52;;;;;;;;;;;16.50;99.90;;;;;;5072079;28;19928;-76
2022/10/16 11:04:32;;;;;;;;;;;16.60;99.90;;;;;;5064803;28;19928;-76
2022/10/16 11:07:07;;;;;;;;;;;16.70;99.90;;;;;;5072837;28;19928;-76
2022/10/16 11:09:42;;;;;;;;;;;16.80;99.90;;;;;;5106884;28;20277;-75
2022/10/16 11:12:14;;;;;;;;;;;17.00;99.90;;;;;;5089136;28;19976;-76
2022/10/16 11:14:48;;;;;;;;;;;17.00;99.90;;;;;;5070635;28;19982;-76
2022/10/16 11:17:16;;;;;;;;;;;17.30;99.90;;;;;;5072477;28;19950;-76
2022/10/16 11:19:45;;;;;;;;;;;17.40;99.90;;;;;;5067091;28;19929;-76
2022/10/16 11:22:22;;;;;;;;;;;17.40;99.90;;;;;;5085791;28;19924;-76
2022/10/16 11:25:06;;;;;;;;;;;17.60;99.90;;;;;;5035879;28;19963;-76
2022/10/16 11:27:40;;;;;;;;;;;17.80;99.90;;;;;;5068910;28;19924;-76
2022/10/16 11:30:26;;;;;;;;;;;18.10;99.90;;;;;;5060540;28;19927;-76
2022/10/16 11:33:13;;;;;;;;;;;18.20;99.90;;;;;;5084127;28;19936;-76
2022/10/16 11:35:43;;;;;;;;;;;18.40;99.90;;;;;;5067226;28;19940;-76
2022/10/16 11:38:14;;;;;;;;;;;18.70;99.90;;;;;;5072207;28;19934;-79
2022/10/16 11:40:41;;;;;;;;;;;19.00;99.90;;;;;;5072142;28;19932;-76
2022/10/16 11:43:16;;;;;;;;;;;19.00;99.90;;;;;;5050655;28;20391;-77
2022/10/16 11:45:44;;;;;;;;;;;19.10;99.90;;;;;;5109293;27;19935;-77
2022/10/16 11:48:13;;;;;;;;;;;19.10;99.90;;;;;;5072875;28;20032;-77
2022/10/16 11:50:43;;;;;;;;;;;19.10;99.90;;;;;;5071874;28;19928;-77
2022/10/16 11:53:14;;;;;;;;;;;19.10;99.90;;;;;;5070308;28;19927;-77
2022/10/16 11:55:40;;;;;;;;;;;19.20;99.90;;;;;;5082594;28;20295;-77
2022/10/16 11:58:09;;;;;;;;;;;19.20;99.90;;;;;;5090098;28;19935;-76
2022/10/16 12:00:38;;;;;;;;;;;19.10;99.90;;;;;;5104856;28;20015;-78
2022/10/16 12:03:13;;;;;;;;;;;19.20;99.90;;;;;;5055784;28;19929;-77
2022/10/16 12:05:57;;;;;;;;;;;19.50;99.90;;;;;;5087382;28;20416;-77
2022/10/16 12:08:23;;;;;;;;;;;19.60;99.90;;;;;;5069215;28;19951;-77
2022/10/16 12:10:49;;;;;;;;;;;19.50;99.90;;;;;;5071452;28;20356;-77
2022/10/16 12:13:53;;;;;;;;;;;19.60;99.90;;;;;;5097447;28;20053;-78
2022/10/16 12:16:22;;;;;;;;;;;19.70;99.90;;;;;;5032036;28;20431;-77
2022/10/16 12:18:48;;;;;;;;;;;19.70;99.90;;;;;;5016410;28;19972;-77
2022/10/16 12:21:18;;;;;;;;;;;20.00;99.90;;;;;;5037578;28;19932;-78
2022/10/16 12:23:50;;;;;;;;;;;20.00;99.90;;;;;;5108489;28;19924;-77
2022/10/16 12:26:27;;;;;;;;;;;20.30;99.90;;;;;;5072455;28;19963;-77
2022/10/16 12:28:52;;;;;;;;;;;20.40;99.90;;;;;;5106828;28;19955;-77
2022/10/16 12:31:18;;;;;;;;;;;20.60;99.90;;;;;;5098523;28;19929;-77
2022/10/16 12:33:56;;;;;;;;;;;20.70;99.90;;;;;;5096572;28;21315;-77
2022/10/16 12:36:32;;;;;;;;;;;20.70;99.90;;;;;;5044880;28;19928;-77
2022/10/16 12:38:58;;;;;;;;;;;20.60;99.90;;;;;;5058290;28;19947;-78
2022/10/16 12:41:28;;;;;;;;;;;20.70;99.90;;;;;;5071616;28;19934;-78
2022/10/16 12:43:54;;;;;;;;;;;20.80;99.90;;;;;;5079414;28;19927;-78
2022/10/16 12:46:24;;;;;;;;;;;20.90;99.90;;;;;;5065852;28;19935;-78
2022/10/16 12:48:50;;;;;;;;;;;21.00;99.90;;;;;;5106483;28;20443;-78
2022/10/16 12:51:23;;;;;;;;;;;21.30;99.90;;;;;;5075030;28;19924;-79
2022/10/16 12:54:04;;;;;;;;;;;21.40;99.90;;;;;;5099888;28;19931;-78
2022/10/16 12:56:33;;;;;;;;;;;21.50;99.90;;;;;;5108564;28;19924;-77
2022/10/16 12:59:05;;;;;;;;;;;21.50;99.90;;;;;;5074801;28;20395;-77
2022/10/16 13:01:33;;;;;;;;;;;21.60;99.90;;;;;;5076412;28;19924;-77
2022/10/16 13:04:14;;;;;;;;;;;21.70;99.90;;;;;;5079142;28;20382;-77
2022/10/16 13:06:49;;;;;;;;;;;21.90;99.90;;;;;;5084088;28;19966;-77
2022/10/16 13:09:22;;;;;;;;;;;21.80;99.90;;;;;;5075272;28;19928;-77
2022/10/16 13:12:07;;;;;;;;;;;22.00;99.90;;;;;;5086750;28;20308;-77
2022/10/16 13:14:51;;;;;;;;;;;22.20;99.90;;;;;;5108608;28;20061;-77
2022/10/16 13:17:17;;;;;;;;;;;22.20;98.90;;;;;;5091381;28;20023;-77
2022/10/16 13:19:48;;;;;;;;;;;22.30;99.90;;;;;;5083132;28;20030;-78
2022/10/16 13:22:21;;;;;;;;;;;22.50;99.90;;;;;;5073323;28;19935;-78
2022/10/16 13:24:59;;;;;;;;;;;22.40;99.40;;;;;;5073659;28;19950;-78
2022/10/16 13:27:35;;;;;;;;;;;22.50;99.90;;;;;;5077710;28;19924;-77
2022/10/16 13:30:20;;;;;;;;;;;22.20;99.40;;;;;;5063319;28;19935;-77
2022/10/16 13:32:48;;;;;;;;;;;22.40;99.90;;;;;;5073519;28;19970;-78
2022/10/16 13:35:21;;;;;;;;;;;22.40;99.80;;;;;;5077130;28;19928;-78
2022/10/16 13:37:46;;;;;;;;;;;22.10;99.70;;;;;;5075570;28;19931;-77
2022/10/16 13:40:18;;;;;;;;;;;22.00;99.60;;;;;;5078874;28;19924;-78
2022/10/16 13:42:44;;;;;;;;;;;21.90;99.90;;;;;;5072383;28;19928;-81
2022/10/16 13:45:19;;;;;;;;;;;21.80;99.80;;;;;;5074491;28;19935;-77
2022/10/16 13:47:45;;;;;;;;;;;22.30;99.90;;;;;;5074862;28;19928;-78
2022/10/16 13:50:12;;;;;;;;;;;22.80;99.90;;;;;;5077708;28;20379;-77
2022/10/16 13:52:38;;;;;;;;;;;23.10;99.90;;;;;;5091876;28;20026;-77
2022/10/16 13:55:09;;;;;;;;;;;23.20;98.50;;;;;;5093930;28;20026;-77
2022/10/16 13:57:35;;;;;;;;;;;23.20;99.00;;;;;;5094445;28;19931;-73
2022/10/16 14:00:01;;;;;;;;;;;23.30;98.30;;;;;;5077772;28;20327;-76
2022/10/16 14:02:34;;;;;;;;;;;23.30;98.40;;;;;;5073596;28;19981;-76
2022/10/16 14:05:01;;;;;;;;;;;23.30;98.00;;;;;;5073048;28;20355;-76
2022/10/16 14:07:28;;;;;;;;;;;23.50;98.50;;;;;;5074108;28;19928;-77
2022/10/16 14:09:54;;;;;;;;;;;23.20;99.00;;;;;;5117657;27;20035;-77
2022/10/16 14:12:21;;;;;;;;;;;23.00;97.80;;;;;;5081762;28;19928;-73
2022/10/16 14:14:48;;;;;;;;;;;22.90;97.90;;;;;;5073306;28;19935;-76
2022/10/16 14:17:22;;;;;;;;;;;23.00;98.50;;;;;;5072531;28;19928;-76
2022/10/16 14:19:49;;;;;;;;;;;22.90;98.30;;;;;;5089496;28;20049;-77
2022/10/16 14:22:24;;;;;;;;;;;22.80;98.80;;;;;;5080487;28;19934;-76
2022/10/16 14:24:50;;;;;;;;;;;22.70;98.50;;;;;;5093012;28;19951;-75